Time;durP1;ratioP1;P1;durP2;ratioP2;P2;SDS_P1;SDS_P2;PMS_P1;PMS_P2;Temp;Humidity;BMP_temperature;BMP_pressure;BME280_temperature;BME280_humidity;BME280_pressure;Samples;Min_cycle;Max_cycle;Signal;HPM_P1;HPM_P2
2023/07/18 00:01:13;;;;;;;7.23;5.37;;;;;;;26.11;54.27;97199.69;5048993;28;20201;-83
2023/07/18 00:04:34;;;;;;;5.77;5.20;;;;;;;26.10;53.76;97180.25;5065343;28;20197;-83
2023/07/18 00:07:55;;;;;;;7.40;5.37;;;;;;;25.97;54.76;97193.13;5064494;28;20205;-84
2023/07/18 00:11:17;;;;;;;9.43;5.10;;;;;;;25.80;55.18;97191.44;5047400;28;20227;-83
2023/07/18 00:14:38;;;;;;;7.07;6.30;;;;;;;25.63;55.18;97187.03;5083687;28;20220;-84
2023/07/18 00:18:02;;;;;;;9.03;6.03;;;;;;;25.29;56.24;97187.00;5085021;28;20336;-83
2023/07/18 00:21:12;;;;;;;7.60;5.53;;;;;;;25.09;57.61;97174.13;5071631;28;20212;-82
2023/07/18 00:24:33;;;;;;;6.83;6.13;;;;;;;24.96;58.66;97177.19;5071573;28;20587;-83
2023/07/18 00:27:54;;;;;;;8.23;6.10;;;;;;;24.95;58.89;97175.53;5071414;28;20706;-82
2023/07/18 00:31:15;;;;;;;7.63;6.73;;;;;;;25.15;58.54;97171.69;5053830;28;20709;-83
2023/07/18 00:34:36;;;;;;;10.67;6.93;;;;;;;24.95;57.96;97141.91;5072013;28;20230;-84
2023/07/18 00:37:58;;;;;;;7.10;6.40;;;;;;;24.82;59.02;97133.53;5071350;28;20230;-82
2023/07/18 00:41:19;;;;;;;6.87;6.17;;;;;;;24.48;60.11;97171.50;5071197;28;20193;-83
2023/07/18 00:44:40;;;;;;;8.37;6.83;;;;;;;24.04;61.20;97167.94;5054820;28;20202;-82
2023/07/18 00:48:02;;;;;;;8.23;7.37;;;;;;;23.81;61.40;97156.91;5071038;28;20209;-84
2023/07/18 00:51:27;;;;;;;7.57;6.77;;;;;;;23.74;62.13;97169.06;5071342;28;20234;-81
2023/07/18 00:54:48;;;;;;;7.40;6.63;;;;;;;23.54;63.65;97170.13;5088784;28;20200;-84
2023/07/18 00:58:10;;;;;;;9.53;6.97;;;;;;;23.71;62.90;97157.94;5070924;28;20242;-83
2023/07/18 01:01:32;;;;;;;12.17;7.03;;;;;;;23.62;62.80;97151.72;5053901;28;20202;-85
2023/07/18 01:04:58;;;;;;;9.17;7.60;;;;;;;23.96;61.99;97138.72;5072900;28;20237;-83
2023/07/18 01:08:20;;;;;;;8.40;6.77;;;;;;;24.22;60.74;97150.25;5089639;28;20193;-84
2023/07/18 01:11:41;;;;;;;8.10;7.00;;;;;;;24.42;60.22;97145.63;5089055;28;20201;-83
2023/07/18 01:15:04;;;;;;;8.50;6.57;;;;;;;24.63;59.72;97143.47;5070927;28;20202;-80
2023/07/18 01:18:27;;;;;;;7.33;6.63;;;;;;;24.75;59.10;97136.97;5070080;28;20238;-83
2023/07/18 01:21:20;;;;;;;8.27;6.93;;;;;;;24.58;59.55;97129.88;5068284;28;20693;-80
2023/07/18 01:24:29;;;;;;;9.10;6.83;;;;;;;24.48;59.52;97134.41;5051736;28;20203;-80
2023/07/18 01:27:54;;;;;;;8.23;7.37;;;;;;;24.01;61.30;97139.91;5050089;28;20234;-80
2023/07/18 01:31:14;;;;;;;8.47;6.63;;;;;;;23.95;62.08;97137.03;5067320;28;20196;-82
2023/07/18 01:34:39;;;;;;;9.13;7.40;;;;;;;23.99;61.99;97120.72;5033425;28;20204;-82
2023/07/18 01:38:01;;;;;;;8.27;7.00;;;;;;;24.43;61.00;97128.75;5050554;28;20234;-82
2023/07/18 01:41:23;;;;;;;12.00;7.43;;;;;;;24.28;61.18;97117.88;5050124;28;20211;-81
2023/07/18 01:44:45;;;;;;;8.87;7.73;;;;;;;23.93;62.61;97123.97;5049721;28;20240;-81
2023/07/18 01:48:13;;;;;;;10.77;7.47;;;;;;;23.89;62.43;97121.75;5034823;28;20197;-81
2023/07/18 01:51:35;;;;;;;11.10;7.13;;;;;;;23.96;62.67;97123.69;5049969;28;20589;-80
2023/07/18 01:54:59;;;;;;;11.30;7.87;;;;;;;24.15;61.90;97123.53;5049774;28;20842;-83
2023/07/18 01:57:40;;;;;;;8.50;7.37;;;;;;;24.22;61.12;97123.78;5049756;28;20620;-82
2023/07/18 02:01:03;;;;;;;9.30;7.30;;;;;;;24.21;60.87;97119.47;5049778;28;20213;-80
2023/07/18 02:04:24;;;;;;;10.07;7.30;;;;;;;24.03;61.53;97119.47;5049890;28;20209;-81
2023/07/18 02:07:47;;;;;;;9.60;7.67;;;;;;;24.11;61.88;97116.06;5062871;28;20195;-81
2023/07/18 02:11:11;;;;;;;9.57;7.77;;;;;;;24.09;62.28;97118.03;5033931;28;20208;-82
2023/07/18 02:14:33;;;;;;;11.37;7.87;;;;;;;23.97;62.28;97101.50;5048330;28;20246;-81
2023/07/18 02:17:54;;;;;;;8.87;7.47;;;;;;;24.20;62.49;97116.00;5066727;28;20242;-82
2023/07/18 02:21:15;;;;;;;11.20;7.10;;;;;;;24.04;62.85;97115.84;5048035;28;20309;-82
2023/07/18 02:24:37;;;;;;;8.13;7.33;;;;;;;24.10;62.96;97112.59;5087341;28;20194;-80
2023/07/18 02:27:58;;;;;;;9.00;7.27;;;;;;;24.14;62.59;97113.13;5068592;28;20722;-83
2023/07/18 02:31:19;;;;;;;10.17;8.00;;;;;;;23.86;62.87;97117.63;5068752;28;20240;-82
2023/07/18 02:34:39;;;;;;;7.70;6.90;;;;;;;23.71;63.62;97113.81;5068948;28;20588;-80
2023/07/18 02:38:00;;;;;;;8.40;7.50;;;;;;;23.36;64.70;97113.75;5068037;28;20227;-83
2023/07/18 02:41:22;;;;;;;8.13;7.20;;;;;;;22.93;66.46;97108.19;5086794;28;20197;-83
2023/07/18 02:44:45;;;;;;;9.20;7.93;;;;;;;22.62;67.43;97119.00;5068594;28;20213;-84
2023/07/18 02:48:10;;;;;;;10.40;8.30;;;;;;;22.32;68.75;97105.94;5068681;28;20670;-84
2023/07/18 02:51:32;;;;;;;13.67;8.70;;;;;;;22.43;68.88;97103.16;5087353;28;20231;-83
2023/07/18 02:54:53;;;;;;;10.30;8.53;;;;;;;22.48;68.78;97110.66;5086596;28;20302;-83
2023/07/18 02:58:14;;;;;;;9.63;7.50;;;;;;;22.52;67.96;97085.63;5068318;28;20234;-84
2023/07/18 03:01:39;;;;;;;12.37;8.60;;;;;;;22.57;67.72;97110.63;5051606;28;20631;-84
2023/07/18 03:04:43;;;;;;;10.37;7.90;;;;;;;22.38;67.36;97091.38;5086633;28;20212;-82
2023/07/18 03:08:04;;;;;;;10.40;8.30;;;;;;;22.50;67.74;97122.72;5025559;28;20204;-81
2023/07/18 03:11:26;;;;;;;9.87;8.87;;;;;;;22.44;67.95;97106.63;5067501;28;20579;-82
2023/07/18 03:14:47;;;;;;;10.77;7.57;;;;;;;22.37;68.56;97113.44;5086153;28;20342;-82
2023/07/18 03:18:11;;;;;;;9.47;8.13;;;;;;;22.09;69.33;97124.84;5064749;28;20369;-82
2023/07/18 03:21:36;;;;;;;13.03;8.27;;;;;;;22.28;68.33;97111.63;5086505;28;20226;-84
2023/07/18 03:24:58;;;;;;;9.67;7.70;;;;;;;22.13;68.78;97094.59;5065596;28;20770;-83
2023/07/18 03:28:21;;;;;;;11.80;7.90;;;;;;;21.80;69.28;97043.88;5085785;28;20874;-83
2023/07/18 03:31:48;;;;;;;12.50;7.50;;;;;;;22.17;69.04;97115.28;5082650;28;20293;-83
2023/07/18 03:35:09;;;;;;;10.10;8.00;;;;;;;22.18;69.23;97110.81;5061689;28;20223;-82
2023/07/18 03:38:30;;;;;;;8.77;7.80;;;;;;;22.01;69.83;97112.34;5048747;28;20229;-83
2023/07/18 03:41:51;;;;;;;10.40;8.30;;;;;;;21.92;70.65;97114.97;5065997;28;20301;-82
2023/07/18 03:45:13;;;;;;;10.10;8.80;;;;;;;21.80;71.02;97111.63;5085449;28;20213;-83
2023/07/18 03:48:37;;;;;;;9.03;8.00;;;;;;;22.27;69.95;97112.63;5051353;28;20261;-84
2023/07/18 03:51:58;;;;;;;10.13;7.43;;;;;;;22.91;67.28;97113.63;5067877;28;20211;-84
2023/07/18 03:55:26;;;;;;;11.73;7.57;;;;;;;23.11;66.12;97117.03;5049917;28;20215;-83
2023/07/18 03:58:48;;;;;;;8.30;7.30;;;;;;;23.05;66.14;97109.69;5057534;28;20231;-83
2023/07/18 04:02:08;;;;;;;9.63;8.50;;;;;;;23.14;66.24;97125.47;5066634;28;20207;-82
2023/07/18 04:05:30;;;;;;;9.03;7.80;;;;;;;23.53;64.45;97120.91;5067803;28;20196;-83
2023/07/18 04:08:51;;;;;;;9.37;7.63;;;;;;;23.94;63.90;97119.50;5085294;28;20204;-82
2023/07/18 04:12:15;;;;;;;8.00;7.20;;;;;;;24.03;63.78;97119.47;5059142;28;20205;-81
2023/07/18 04:15:36;;;;;;;8.07;7.27;;;;;;;23.63;64.54;97115.53;5077332;28;20249;-83
2023/07/18 04:19:02;;;;;;;9.03;7.57;;;;;;;23.97;64.37;97114.75;5058613;28;20300;-79
2023/07/18 04:22:22;;;;;;;9.17;7.40;;;;;;;23.99;63.52;97112.78;5044319;28;20205;-82
2023/07/18 04:25:23;;;;;;;8.47;7.53;;;;;;;23.69;65.53;97101.72;5064611;28;20209;-84
2023/07/18 04:28:34;;;;;;;9.63;7.50;;;;;;;23.86;63.78;97109.69;5047652;28;20203;-83
2023/07/18 04:31:55;;;;;;;9.83;7.63;;;;;;;23.87;62.63;97098.09;5049250;28;20626;-84
2023/07/18 04:35:17;;;;;;;13.37;8.87;;;;;;;24.06;62.54;97113.88;5050248;28;20205;-84
2023/07/18 04:38:38;;;;;;;12.00;9.37;;;;;;;24.46;60.80;97109.91;5030723;28;20234;-83
2023/07/18 04:42:02;;;;;;;13.97;9.97;;;;;;;25.08;59.49;97104.38;5052282;28;20674;-81
2023/07/18 04:45:25;;;;;;;11.63;9.50;;;;;;;25.52;58.03;97076.75;5065670;28;20208;-82
2023/07/18 04:48:48;;;;;;;10.60;8.90;;;;;;;25.22;59.53;97111.75;5064983;28;20257;-83
2023/07/18 04:52:09;;;;;;;9.83;8.73;;;;;;;24.67;61.48;97107.72;5063721;28;20593;-83
2023/07/18 04:55:32;;;;;;;11.93;9.67;;;;;;;24.94;60.15;97099.66;5046469;28;20201;-82
2023/07/18 04:58:53;;;;;;;14.07;9.33;;;;;;;25.95;57.91;97106.69;5032044;28;20234;-81
2023/07/18 05:02:15;;;;;;;16.03;11.93;;;;;;;26.32;56.07;97093.78;5030979;28;20209;-81
2023/07/18 05:05:36;;;;;;;14.87;10.83;;;;;;;26.52;55.58;97092.50;5065367;28;20194;-83
2023/07/18 05:08:58;;;;;;;16.80;10.57;;;;;;;26.84;54.60;97087.13;5036061;28;20311;-83
2023/07/18 05:12:21;;;;;;;12.90;10.13;;;;;;;27.22;53.97;97098.84;5034764;28;20681;-84
2023/07/18 05:15:50;;;;;;;12.60;9.90;;;;;;;27.55;53.44;97103.06;5069090;28;20211;-84
2023/07/18 05:19:10;;;;;;;11.77;10.27;;;;;;;27.89;52.33;97095.53;5035550;28;20668;-83
2023/07/18 05:22:31;;;;;;;11.53;10.13;;;;;;;27.67;52.74;97093.69;5072018;28;20216;-84
2023/07/18 05:25:58;;;;;;;11.37;9.33;;;;;;;27.41;53.76;97092.31;5028437;28;20288;-84
2023/07/18 05:28:40;;;;;;;13.00;9.87;;;;;;;27.52;53.69;97089.25;5059320;28;20194;-82
2023/07/18 05:31:09;;;;;;;11.13;9.40;;;;;;;27.89;52.81;97084.88;5070095;28;20200;-81
2023/07/18 05:34:17;;;;;;;13.27;9.67;;;;;;;28.05;52.04;97092.78;5089334;28;20231;-84
2023/07/18 05:36:58;;;;;;;12.57;8.80;;;;;;;28.00;51.38;97095.16;5071602;28;20311;-83
2023/07/18 05:40:25;;;;;;;14.50;9.73;;;;;;;27.46;51.87;97004.81;5089478;28;20276;-85
2023/07/18 05:43:47;;;;;;;13.70;10.30;;;;;;;28.45;50.78;97082.81;5087588;28;20334;-82
2023/07/18 05:47:55;;;;;;;11.30;9.53;;;;;;;28.09;50.08;97072.78;5089507;28;20192;-84
2023/07/18 05:51:22;;;;;;;11.00;8.70;;;;;;;28.37;49.56;97085.56;5088433;28;20197;-84
2023/07/18 05:54:45;;;;;;;12.67;10.10;;;;;;;28.34;50.37;97076.09;5069012;28;20607;-85
2023/07/18 05:58:07;;;;;;;11.37;8.70;;;;;;;28.38;49.83;97073.91;5069688;28;20717;-84
2023/07/18 06:01:29;;;;;;;11.13;9.37;;;;;;;28.51;49.25;97072.28;5053183;28;20200;-82
2023/07/18 06:05:00;;;;;;;12.87;9.93;;;;;;;29.07;48.16;97064.72;5088229;28;20192;-82
2023/07/18 06:08:21;;;;;;;10.43;9.27;;;;;;;29.11;47.74;97068.69;5068896;28;20284;-83
2023/07/18 06:11:48;;;;;;;13.30;8.73;;;;;;;28.86;48.88;97041.47;5069499;28;20291;-82
2023/07/18 06:15:28;;;;;;;10.97;9.13;;;;;;;29.10;47.97;97075.84;5051550;28;20200;-82
2023/07/18 06:18:53;;;;;;;10.00;9.03;;;;;;;29.26;48.07;97066.88;5054304;28;20239;-83
2023/07/18 06:22:15;;;;;;;9.97;8.57;;;;;;;29.33;48.20;97065.94;5068802;28;20199;-82
2023/07/18 06:25:40;;;;;;;9.50;7.93;;;;;;;29.53;47.55;97072.34;5084520;28;20648;-82
2023/07/18 06:29:07;;;;;;;7.87;7.17;;;;;;;29.80;48.24;97067.34;5051719;28;20704;-81
2023/07/18 06:32:30;;;;;;;11.70;8.40;;;;;;;29.89;47.38;97071.53;5054035;28;20208;-82
2023/07/18 06:35:55;;;;;;;12.43;7.87;;;;;;;30.17;45.46;97062.59;5071371;28;20192;-83
2023/07/18 06:39:18;;;;;;;8.10;6.83;;;;;;;30.56;44.60;97061.31;5070179;28;20364;-83
2023/07/18 06:42:43;;;;;;;9.03;7.67;;;;;;;30.45;45.40;97051.97;5068446;28;20704;-81
2023/07/18 06:46:06;;;;;;;12.30;8.00;;;;;;;30.43;44.22;97060.19;5087330;28;20228;-83
2023/07/18 06:49:29;;;;;;;12.03;7.70;;;;;;;30.41;44.89;97053.38;5086908;28;20204;-85
2023/07/18 06:52:51;;;;;;;9.73;7.50;;;;;;;30.25;45.93;97049.09;5053516;28;20204;-83
2023/07/18 06:56:11;;;;;;;9.07;8.17;;;;;;;30.34;44.75;97029.25;5052570;28;20203;-82
2023/07/18 06:59:36;;;;;;;9.60;8.63;;;;;;;30.54;45.16;97059.66;5085648;28;20200;-85
2023/07/18 07:03:05;;;;;;;9.30;7.53;;;;;;;30.53;44.39;97060.69;5087174;28;20617;-81
2023/07/18 07:06:41;;;;;;;8.67;7.60;;;;;;;30.44;44.90;97059.16;5053456;28;20292;-81
2023/07/18 07:09:29;;;;;;;10.77;9.07;;;;;;;30.49;45.42;97056.75;5054968;28;20216;-82
2023/07/18 07:11:58;;;;;;;8.47;7.67;;;;;;;30.35;44.89;97036.28;5052094;28;20200;-81
2023/07/18 07:15:06;;;;;;;10.33;8.00;;;;;;;30.46;45.56;97056.28;5056306;28;20196;-82
2023/07/18 07:17:47;;;;;;;9.17;8.17;;;;;;;30.39;45.93;97044.72;5036050;28;20692;-83
2023/07/18 07:20:19;;;;;;;9.97;8.83;;;;;;;30.88;44.76;97055.41;5085317;28;20232;-81
2023/07/18 07:23:29;;;;;;;11.53;8.50;;;;;;;31.06;44.54;97059.22;5068439;28;20303;-83
2023/07/18 07:26:50;;;;;;;10.03;9.03;;;;;;;30.90;44.06;97042.66;5030593;28;21086;-81
2023/07/18 07:30:16;;;;;;;14.33;9.83;;;;;;;30.99;43.87;97046.84;5051975;28;20196;-82
2023/07/18 07:33:41;;;;;;;11.40;9.40;;;;;;;31.36;43.56;97053.59;5053679;28;20526;-81
2023/07/18 07:37:12;;;;;;;10.27;7.83;;;;;;;31.43;43.79;97052.63;5052144;28;20220;-79
2023/07/18 07:40:37;;;;;;;10.77;6.83;;;;;;;31.70;41.82;97045.50;5033214;28;20204;-82
2023/07/18 07:44:01;;;;;;;12.95;8.20;;;;;;;31.82;42.23;97052.75;5049766;28;20200;-79
2023/07/18 07:47:22;;;;;;;11.27;7.53;;;;;;;32.03;41.27;97049.97;5046414;28;20193;-80
2023/07/18 07:50:24;;;;;;;9.35;7.03;;;;;;;31.95;42.29;97035.94;5049490;28;20212;-81
2023/07/18 07:53:00;;;;;;;8.57;7.22;;;;;;;31.84;41.71;97026.59;5047693;28;20203;-81
2023/07/18 07:55:30;;;;;;;8.88;6.93;;;;;;;31.88;41.86;97019.81;5048739;28;20185;-80
2023/07/18 07:57:59;;;;;;;9.13;7.70;;;;;;;32.30;41.46;97025.84;5033906;28;20954;-82
2023/07/18 08:00:29;;;;;;;9.18;7.28;;;;;;;32.33;41.20;97034.34;5055213;28;20707;-82
2023/07/18 08:03:00;;;;;;;7.75;7.00;;;;;;;32.07;41.31;96997.59;5057585;28;20201;-80
2023/07/18 08:05:29;;;;;;;8.40;7.20;;;;;;;32.26;41.21;97017.41;5028093;28;20219;-82
2023/07/18 08:07:59;;;;;;;9.27;7.75;;;;;;;32.48;41.38;97026.13;5075201;28;20185;-81
2023/07/18 08:11:18;;;;;;;11.18;7.97;;;;;;;32.82;41.29;97034.75;5041018;28;20287;-84
2023/07/18 08:13:47;;;;;;;9.55;7.82;;;;;;;32.89;41.03;97021.31;5040749;28;20292;-81
2023/07/18 08:16:20;;;;;;;10.73;8.80;;;;;;;32.80;41.08;97004.59;5052322;28;20729;-82
2023/07/18 08:18:48;;;;;;;11.43;8.13;;;;;;;32.98;41.42;97025.44;5048644;28;20266;-82
2023/07/18 08:21:24;;;;;;;11.52;8.40;;;;;;;33.00;41.95;97018.00;5049493;28;20700;-82
2023/07/18 08:24:33;;;;;;;10.88;7.97;;;;;;;33.17;41.34;96997.72;5048248;28;20211;-81
2023/07/18 08:27:54;;;;;;;10.18;7.78;;;;;;;33.30;41.73;97013.78;5046324;28;20197;-82
2023/07/18 08:31:19;;;;;;;11.45;10.25;;;;;;;33.44;41.86;97018.06;5045785;28;20197;-81
2023/07/18 08:34:02;;;;;;;10.15;8.60;;;;;;;33.71;41.26;97020.63;5042741;28;20736;-81
2023/07/18 08:36:35;;;;;;;12.75;8.40;;;;;;;33.75;40.88;97016.47;5031547;28;20247;-82
2023/07/18 08:39:07;;;;;;;11.52;9.25;;;;;;;33.74;41.08;97004.91;5030307;28;20229;-81
2023/07/18 08:41:45;;;;;;;13.32;9.05;;;;;;;33.93;40.97;97006.63;5034902;28;20687;-80
2023/07/18 08:44:21;;;;;;;21.10;11.40;;;;;;;34.08;41.03;97001.00;5035547;28;20712;-81
2023/07/18 08:46:54;;;;;;;11.40;10.20;;;;;;;33.32;42.71;97009.03;5018730;28;20641;-82
2023/07/18 08:49:35;;;;;;;10.15;9.15;;;;;;;33.03;42.94;96997.97;5051173;28;20201;-81
2023/07/18 08:52:07;;;;;;;9.95;8.88;;;;;;;33.16;42.92;97006.00;5018281;28;20205;-82
2023/07/18 08:54:47;;;;;;;15.25;9.98;;;;;;;33.46;42.87;96980.22;5035593;28;20259;-82
2023/07/18 08:57:19;;;;;;;12.90;8.68;;;;;;;33.63;42.35;96973.34;5034589;28;20319;-81
2023/07/18 09:00:30;;;;;;;10.55;9.27;;;;;;;33.94;42.55;97000.25;5051205;28;20208;-82
2023/07/18 09:03:53;;;;;;;12.02;9.27;;;;;;;34.25;41.48;97007.50;5068487;28;20212;-83
2023/07/18 09:07:16;;;;;;;12.25;9.13;;;;;;;33.67;41.69;96996.88;5049156;28;20690;-82
2023/07/18 09:10:53;;;;;;;14.88;9.25;;;;;;;33.72;41.77;97006.16;5067281;28;20591;-82
2023/07/18 09:14:46;;;;;;;11.27;9.45;;;;;;;33.92;41.70;96996.13;5067917;28;20201;-82
2023/07/18 09:18:16;;;;;;;11.88;9.02;;;;;;;34.12;40.81;96996.81;5067409;28;20248;-84
2023/07/18 09:21:48;;;;;;;10.93;8.35;;;;;;;33.56;41.59;96961.81;5050097;28;20267;-83
2023/07/18 09:25:13;;;;;;;10.57;9.45;;;;;;;33.93;40.89;97008.50;5036758;28;20247;-82
2023/07/18 09:28:36;;;;;;;13.38;9.40;;;;;;;33.69;41.91;97007.41;5050509;28;20283;-81
2023/07/18 09:32:00;;;;;;;9.77;8.68;;;;;;;33.77;41.50;97009.03;5048519;28;20204;-81
2023/07/18 09:35:30;;;;;;;10.10;8.82;;;;;;;33.85;41.37;97000.69;5050267;28;20197;-81
2023/07/18 09:38:53;;;;;;;10.93;9.38;;;;;;;33.73;41.88;96997.88;5067684;28;20228;-82
2023/07/18 09:41:45;;;;;;;10.77;9.68;;;;;;;33.01;42.26;96978.56;5070225;28;20829;-82
2023/07/18 09:44:55;;;;;;;11.68;10.25;;;;;;;33.13;43.77;97006.41;5049363;28;20644;-83
2023/07/18 09:48:25;;;;;;;11.13;9.60;;;;;;;33.08;44.73;97003.53;5051735;28;20484;-81
2023/07/18 09:52:14;;;;;;;12.60;10.07;;;;;;;33.06;44.52;96989.47;5051838;28;20208;-82
2023/07/18 09:55:38;;;;;;;14.48;10.57;;;;;;;33.05;45.04;97010.16;5031047;28;20197;-82
2023/07/18 09:59:01;;;;;;;12.00;10.45;;;;;;;33.08;44.54;96993.59;5067541;28;20256;-82
2023/07/18 10:02:25;;;;;;;11.10;10.00;;;;;;;33.60;43.16;97000.63;5051107;28;20194;-84
2023/07/18 10:06:29;;;;;;;10.85;9.85;;;;;;;33.51;43.98;97002.75;5070394;28;20573;-83
2023/07/18 10:09:53;;;;;;;12.18;10.32;;;;;;;33.63;43.98;96997.53;5046820;28;20288;-83
2023/07/18 10:12:55;;;;;;;11.60;10.07;;;;;;;33.83;44.04;96998.22;5067114;28;20204;-82
2023/07/18 10:16:12;;;;;;;12.07;10.35;;;;;;;33.67;44.48;96994.19;5067045;28;20197;-82
2023/07/18 10:19:37;;;;;;;11.68;10.45;;;;;;;33.47;44.69;96981.88;5048745;28;20711;-83
2023/07/18 10:23:27;;;;;;;10.40;8.88;;;;;;;33.84;44.45;96989.13;5069764;28;20204;-82
2023/07/18 10:26:48;;;;;;;13.65;9.65;;;;;;;33.75;44.06;96979.69;5034948;28;20195;-81
2023/07/18 10:30:24;;;;;;;11.52;10.00;;;;;;;34.00;43.61;96974.38;5033998;28;20239;-81
2023/07/18 10:33:08;;;;;;;11.00;8.82;;;;;;;33.50;43.32;96960.00;5032896;28;20193;-81
2023/07/18 10:35:42;;;;;;;11.98;10.60;;;;;;;33.03;44.78;96969.28;5033152;28;20216;-81
2023/07/18 10:38:54;;;;;;;11.63;9.25;;;;;;;32.95;44.94;96972.16;5049586;28;20252;-80
2023/07/18 10:42:16;;;;;;;12.82;9.63;;;;;;;33.00;44.71;96968.84;5031580;28;20193;-82
2023/07/18 10:45:39;;;;;;;11.50;9.45;;;;;;;32.77;45.07;96974.66;5048258;28;20210;-82
2023/07/18 10:49:03;;;;;;;11.25;10.15;;;;;;;33.02;44.77;96962.25;5047453;28;20665;-83
2023/07/18 10:52:30;;;;;;;12.70;9.88;;;;;;;33.41;43.85;96961.22;5018153;28;20763;-82
2023/07/18 10:56:28;;;;;;;13.55;9.90;;;;;;;32.89;45.76;96956.91;5068065;28;20197;-82
2023/07/18 10:59:52;;;;;;;13.20;9.52;;;;;;;32.79;45.02;96959.19;5065459;28;20236;-81
2023/07/18 11:03:16;;;;;;;10.93;9.80;;;;;;;32.97;44.65;96975.47;5047538;28;20267;-82
2023/07/18 11:06:42;;;;;;;11.68;10.05;;;;;;;33.03;45.23;96947.81;5065365;28;20292;-81
2023/07/18 11:10:16;;;;;;;13.30;10.13;;;;;;;33.28;45.35;96950.59;5032306;28;20208;-81
2023/07/18 11:14:20;;;;;;;12.32;10.15;;;;;;;33.42;43.29;96936.88;5054063;28;20593;-82
2023/07/18 11:27:08;;;;;;;13.80;11.18;;;;;;;34.55;43.29;96941.22;5067366;28;20196;-81
2023/07/18 11:30:33;;;;;;;15.38;10.85;;;;;;;34.50;42.17;96949.13;5047593;28;20238;-84
2023/07/18 11:34:30;;;;;;;11.75;10.10;;;;;;;34.49;42.07;96925.97;5052663;28;20224;-83
2023/07/18 11:38:24;;;;;;;15.70;10.80;;;;;;;34.54;41.71;96953.00;5068369;28;20755;-84
2023/07/18 11:42:14;;;;;;;11.50;10.30;;;;;;;34.60;41.50;96941.38;5069314;28;20205;-84
2023/07/18 11:45:40;;;;;;;13.57;10.30;;;;;;;34.49;41.97;96931.34;5052045;28;20635;-82
2023/07/18 11:48:58;;;;;;;12.73;10.20;;;;;;;34.51;42.58;96937.34;5067956;28;20197;-82
2023/07/18 11:51:31;;;;;;;12.23;10.57;;;;;;;34.22;42.71;96944.19;5050057;28;20247;-83
2023/07/18 11:54:54;;;;;;;12.32;10.50;;;;;;;34.30;43.16;96951.97;5048836;28;20282;-83
2023/07/18 11:57:28;;;;;;;30.45;11.68;;;;;;;33.35;43.04;96957.56;5066989;28;20307;-84
2023/07/18 12:00:27;;;;;;;14.48;8.32;;;;;;;32.69;44.01;96996.34;5034509;28;20205;-82
2023/07/18 12:03:36;;;;;;;17.65;9.55;;;;;;;32.50;44.79;96983.81;5047766;28;20201;-83
2023/07/18 12:07:28;;;;;;;15.95;10.05;;;;;;;32.40;46.46;97021.72;5031573;28;20200;-81
2023/07/18 12:10:51;;;;;;;12.57;10.77;;;;;;;29.00;57.78;96999.81;5048126;28;20309;-82
2023/07/18 12:14:12;;;;;;;8.27;7.47;;;;;;;28.98;52.50;96971.47;5066097;28;20198;-78
2023/07/18 12:17:33;;;;;;;7.67;6.83;;;;;;;29.05;52.62;96968.91;5051473;28;20791;-82
2023/07/18 12:20:56;;;;;;;9.93;8.43;;;;;;;28.93;56.76;96944.53;5053988;28;20232;-80
2023/07/18 12:24:19;;;;;;;10.30;9.13;;;;;;;29.25;57.32;96945.13;5053978;28;20283;-80
2023/07/18 12:27:40;;;;;;;12.43;9.63;;;;;;;29.23;56.31;96921.31;5052327;28;20205;-80
2023/07/18 12:31:02;;;;;;;13.30;10.63;;;;;;;29.26;58.32;96933.47;5071265;28;20211;-82
2023/07/18 12:34:27;;;;;;;12.83;11.17;;;;;;;29.15;60.50;96923.28;5057455;28;20801;-81
2023/07/18 12:37:54;;;;;;;18.63;11.43;;;;;;;29.21;62.04;96930.53;5056323;28;20258;-79
2023/07/18 12:41:16;;;;;;;14.17;12.07;;;;;;;29.76;61.11;96927.22;5089170;28;20205;-81
2023/07/18 12:44:38;;;;;;;17.60;12.57;;;;;;;30.05;60.83;96929.69;5089914;28;20700;-80
2023/07/18 12:48:01;;;;;;;13.00;11.70;;;;;;;30.42;61.69;96892.78;5055057;28;20205;-80
2023/07/18 12:51:23;;;;;;;16.53;12.77;;;;;;;31.13;61.58;96920.94;5070646;28;20192;-81
2023/07/18 12:54:46;;;;;;;14.17;11.90;;;;;;;31.70;58.98;96908.91;5088958;28;20201;-79
2023/07/18 12:58:10;;;;;;;14.13;12.03;;;;;;;31.91;58.06;96920.28;5041086;28;20251;-81
2023/07/18 13:01:32;;;;;;;16.17;11.60;;;;;;;32.60;53.88;96911.78;5070822;28;20197;-82
2023/07/18 13:04:52;;;;;;;12.73;9.98;;;;;;;33.27;48.56;96927.44;5070474;28;20956;-82
2023/07/18 13:08:14;;;;;;;12.82;10.18;;;;;;;33.49;47.42;96907.31;5069507;28;20196;-81
2023/07/18 13:11:37;;;;;;;13.82;10.25;;;;;;;33.55;46.63;96926.06;5071926;28;20294;-80
2023/07/18 13:14:58;;;;;;;13.30;9.75;;;;;;;33.51;46.95;96906.03;5071396;28;20231;-81
2023/07/18 13:18:22;;;;;;;10.40;9.30;;;;;;;33.70;46.42;96906.13;5087478;28;20239;-80
2023/07/18 13:21:42;;;;;;;11.85;9.90;;;;;;;33.88;46.48;96911.59;5069729;28;20622;-81
2023/07/18 13:25:06;;;;;;;10.90;9.23;;;;;;;33.95;45.93;96899.72;5088020;28;20201;-81
2023/07/18 13:28:27;;;;;;;11.18;9.07;;;;;;;33.92;45.53;96908.25;5068987;28;20295;-81
2023/07/18 13:31:50;;;;;;;12.45;9.93;;;;;;;33.85;45.70;96917.38;5071409;28;20296;-82
2023/07/18 13:34:32;;;;;;;13.90;9.80;;;;;;;33.85;45.79;96894.03;5088712;28;20196;-80
2023/07/18 13:37:40;;;;;;;10.55;9.50;;;;;;;33.71;46.31;96905.09;5070436;28;20268;-81
2023/07/18 13:41:07;;;;;;;13.60;9.48;;;;;;;33.70;46.37;96901.56;5070093;28;20204;-81
2023/07/18 13:44:29;;;;;;;11.43;9.70;;;;;;;33.46;46.37;96884.38;5069554;28;20196;-82
2023/07/18 13:47:46;;;;;;;13.10;9.82;;;;;;;34.00;46.24;96901.78;5087720;28;20201;-81
2023/07/18 13:50:55;;;;;;;12.40;9.32;;;;;;;33.59;45.76;96921.91;5089132;28;20287;-80
2023/07/18 13:54:18;;;;;;;10.70;8.40;;;;;;;33.59;45.91;96913.84;5069925;28;20201;-79
2023/07/18 13:57:43;;;;;;;1007.43;932.37;;;;;;;32.02;47.46;96988.53;5087989;28;20713;-64
2023/07/18 14:01:04;;;;;;;742.70;683.90;;;;;;;31.33;53.20;96916.44;5069133;28;20274;-67
2023/07/18 14:04:24;;;;;;;190.73;177.10;;;;;;;31.57;55.50;96923.13;5086613;28;20196;-65
2023/07/18 14:07:45;;;;;;;55.93;50.77;;;;;;;31.79;54.18;96913.06;5087679;28;20199;-64
2023/07/18 14:11:06;;;;;;;86.93;80.00;;;;;;;31.82;56.71;96924.16;5087836;28;20200;-65
2023/07/18 14:14:27;;;;;;;1231.13;999.90;;;;;;;30.61;58.82;96927.84;5086063;28;20578;-79
2023/07/18 14:17:47;;;;;;;1078.77;987.80;;;;;;;30.50;60.59;96895.31;5089245;28;20193;-78
2023/07/18 14:21:08;;;;;;;1084.27;991.83;;;;;;;30.95;58.95;96895.75;5073043;28;20722;-79
2023/07/18 14:24:29;;;;;;;1080.67;989.77;;;;;;;31.21;55.71;96890.47;5087050;28;20258;-78
2023/07/18 14:27:50;;;;;;;1063.77;973.70;;;;;;;30.51;58.30;96883.59;5071113;28;20236;-78
2023/07/18 14:31:10;;;;;;;1061.40;971.93;;;;;;;30.74;60.49;96887.81;5051403;28;20227;-78
2023/07/18 14:34:32;;;;;;;1061.63;971.43;;;;;;;30.78;59.21;96873.84;5072102;28;20193;-79
2023/07/18 14:37:54;;;;;;;1080.47;988.93;;;;;;;31.03;59.19;96876.84;5066586;28;20716;-78
2023/07/18 14:41:15;;;;;;;1071.67;980.80;;;;;;;31.33;60.16;96883.50;5065214;28;20349;-79
2023/07/18 14:44:36;;;;;;;1066.03;976.07;;;;;;;31.70;59.34;96876.78;5050887;28;20189;-79
2023/07/18 14:47:58;;;;;;;833.27;774.27;;;;;;;31.63;58.70;96852.69;5033535;28;20228;-80
2023/07/18 14:51:20;;;;;;;416.57;385.67;;;;;;;31.84;60.88;96871.22;5049149;28;20754;-77
2023/07/18 14:54:41;;;;;;;47.78;38.53;;;;;;;31.96;57.86;96866.09;5074051;28;20730;-78
2023/07/18 14:58:01;;;;;;;265.43;244.50;;;;;;;32.29;58.23;96863.38;5067218;28;20275;-78
2023/07/18 15:01:22;;;;;;;240.38;222.52;;;;;;;32.56;55.35;96868.47;5032037;28;20284;-78
2023/07/18 15:04:43;;;;;;;37.03;24.17;;;;;;;32.58;55.50;96847.59;5065846;28;20197;-78
2023/07/18 15:08:04;;;;;;;48.25;43.47;;;;;;;32.88;53.96;96862.16;5066390;28;20546;-79
2023/07/18 15:11:28;;;;;;;31.08;20.38;;;;;;;32.88;55.91;96854.09;5052097;28;20231;-78
2023/07/18 15:14:45;;;;;;;21.75;12.18;;;;;;;32.92;53.79;96859.03;5048215;28;20197;-77
2023/07/18 15:17:58;;;;;;;23.25;11.93;;;;;;;33.15;49.02;96849.44;5048454;28;20223;-78
2023/07/18 15:21:19;;;;;;;43.65;39.47;;;;;;;33.51;46.33;96848.84;5031163;28;20383;-78
2023/07/18 15:24:41;;;;;;;189.63;175.25;;;;;;;33.64;44.57;96854.09;5048691;28;20292;-79